Time;durP1;ratioP1;P1;durP2;ratioP2;P2;SDS_P1;SDS_P2;PMS_P1;PMS_P2;Temp;Humidity;BMP_temperature;BMP_pressure;BME280_temperature;BME280_humidity;BME280_pressure;Samples;Min_cycle;Max_cycle;Signal;HPM_P1;HPM_P2
2023/01/28 00:00:27;;;;;;;8.17;3.00;;;1.20;99.90;;;;;;5060455;28;20215;-78
2023/01/28 00:02:53;;;;;;;7.47;2.43;;;1.20;99.90;;;;;;5041908;28;20211;-79
2023/01/28 00:05:19;;;;;;;6.20;2.90;;;1.10;99.90;;;;;;5041336;28;20556;-78
2023/01/28 00:07:47;;;;;;;7.87;2.90;;;1.10;99.90;;;;;;5059016;28;20678;-78
2023/01/28 00:10:13;;;;;;;5.70;2.67;;;1.10;99.90;;;;;;5059957;28;20207;-79
2023/01/28 00:12:39;;;;;;;7.63;3.00;;;1.00;99.90;;;;;;5042024;28;20595;-79
2023/01/28 00:15:05;;;;;;;8.13;3.13;;;1.00;99.90;;;;;;5058519;28;20182;-78
2023/01/28 00:17:30;;;;;;;9.13;2.77;;;1.00;99.90;;;;;;5057695;28;20744;-79
2023/01/28 00:19:56;;;;;;;4.90;2.63;;;0.90;99.90;;;;;;5045681;28;20239;-79
2023/01/28 00:22:22;;;;;;;7.37;3.27;;;0.90;99.90;;;;;;5043185;28;20242;-78
2023/01/28 00:24:47;;;;;;;8.53;2.80;;;0.90;99.90;;;;;;5049327;28;20294;-79
2023/01/28 00:27:13;;;;;;;7.10;2.80;;;0.80;99.90;;;;;;5043141;28;20221;-79
2023/01/28 00:29:38;;;;;;;5.93;2.73;;;0.80;99.90;;;;;;5042542;28;20190;-79
2023/01/28 00:32:04;;;;;;;5.33;2.87;;;0.70;99.90;;;;;;5043821;28;20628;-79
2023/01/28 00:34:30;;;;;;;5.53;2.90;;;0.70;99.90;;;;;;5055364;28;20214;-79
2023/01/28 00:36:58;;;;;;;6.50;2.57;;;0.70;99.90;;;;;;5043210;28;20678;-78
2023/01/28 00:39:25;;;;;;;7.00;3.50;;;0.70;99.90;;;;;;5046840;28;20207;-78
2023/01/28 00:41:52;;;;;;;8.33;3.60;;;0.60;99.90;;;;;;5065841;28;20195;-77
2023/01/28 00:44:18;;;;;;;9.70;3.27;;;0.60;99.90;;;;;;5075189;28;20175;-79
2023/01/28 00:46:44;;;;;;;7.00;2.90;;;0.60;99.90;;;;;;5065282;28;20211;-80
2023/01/28 00:49:10;;;;;;;5.37;3.23;;;0.60;99.90;;;;;;5062708;28;20674;-79
2023/01/28 00:51:35;;;;;;;9.67;3.17;;;0.60;99.90;;;;;;5060818;28;20207;-80
2023/01/28 00:54:01;;;;;;;11.60;3.50;;;0.60;99.90;;;;;;5048975;28;20324;-78
2023/01/28 00:56:27;;;;;;;8.80;3.17;;;0.60;99.90;;;;;;5071265;28;20198;-79
2023/01/28 00:58:53;;;;;;;4.83;2.83;;;0.60;99.90;;;;;;5048738;28;20215;-79
2023/01/28 01:01:22;;;;;;;6.63;2.87;;;0.60;99.90;;;;;;5051157;28;20226;-79
2023/01/28 01:03:56;;;;;;;5.47;2.97;;;0.50;99.90;;;;;;5057161;28;20222;-81
2023/01/28 01:06:23;;;;;;;6.33;2.83;;;0.40;99.90;;;;;;5071469;28;20208;-79
2023/01/28 01:08:50;;;;;;;5.57;2.70;;;0.40;99.90;;;;;;5071234;28;20183;-80
2023/01/28 01:11:16;;;;;;;5.13;2.93;;;0.50;99.90;;;;;;5053144;28;20278;-79
2023/01/28 01:13:42;;;;;;;6.70;3.10;;;0.50;99.90;;;;;;5065283;28;20220;-78
2023/01/28 01:16:18;;;;;;;5.50;2.47;;;0.50;99.90;;;;;;5070490;28;20230;-78
2023/01/28 01:18:43;;;;;;;6.50;3.30;;;0.60;99.90;;;;;;5061182;28;20282;-78
2023/01/28 01:21:16;;;;;;;9.60;3.17;;;0.60;99.90;;;;;;5055737;28;20215;-80
2023/01/28 01:23:42;;;;;;;5.00;2.73;;;0.60;99.90;;;;;;5062512;28;20230;-79
2023/01/28 01:26:08;;;;;;;5.50;2.87;;;0.60;99.90;;;;;;5081933;28;20214;-80
2023/01/28 01:28:33;;;;;;;6.37;2.70;;;0.60;99.90;;;;;;5064890;28;20235;-79
2023/01/28 01:31:07;;;;;;;5.53;2.70;;;0.70;99.90;;;;;;5061383;28;20218;-78
2023/01/28 01:33:33;;;;;;;6.13;3.07;;;0.70;99.90;;;;;;5057690;28;20241;-80
2023/01/28 01:35:59;;;;;;;8.90;3.57;;;0.80;99.90;;;;;;5046013;28;20183;-79
2023/01/28 01:38:26;;;;;;;8.27;3.33;;;0.80;99.90;;;;;;5066401;28;20176;-78
2023/01/28 01:40:54;;;;;;;11.77;3.13;;;0.90;99.90;;;;;;5045999;28;20218;-79
2023/01/28 01:43:21;;;;;;;7.33;3.27;;;1.00;99.90;;;;;;5042713;28;20303;-80
2023/01/28 01:45:58;;;;;;;6.10;2.97;;;1.00;99.90;;;;;;5044948;28;20210;-79
2023/01/28 01:48:30;;;;;;;5.60;2.80;;;1.00;99.90;;;;;;5033484;28;20680;-80
2023/01/28 01:51:07;;;;;;;6.10;2.83;;;1.10;99.90;;;;;;5064691;28;20203;-78
2023/01/28 01:53:35;;;;;;;9.20;3.20;;;1.10;99.90;;;;;;5062017;28;20213;-79
2023/01/28 01:56:05;;;;;;;6.73;2.87;;;1.20;99.90;;;;;;5058207;28;20234;-79
2023/01/28 01:58:35;;;;;;;6.80;3.37;;;1.20;99.90;;;;;;5041513;28;20212;-80
2023/01/28 02:01:01;;;;;;;6.33;2.70;;;1.30;99.90;;;;;;5042017;28;20310;-79
2023/01/28 02:03:35;;;;;;;5.90;2.47;;;1.20;99.90;;;;;;5041426;28;20215;-80
2023/01/28 02:06:02;;;;;;;7.87;3.03;;;1.20;99.90;;;;;;5044770;28;20197;-78
2023/01/28 02:08:28;;;;;;;4.20;2.33;;;1.20;99.90;;;;;;5061171;28;20641;-79
2023/01/28 02:11:07;;;;;;;5.77;2.70;;;1.30;99.90;;;;;;5042585;28;20309;-79
2023/01/28 02:13:40;;;;;;;5.33;2.60;;;1.30;99.90;;;;;;5061527;28;20345;-78
2023/01/28 02:16:07;;;;;;;4.87;2.73;;;1.30;99.90;;;;;;5039909;28;20700;-78
2023/01/28 02:18:33;;;;;;;5.13;2.80;;;1.40;99.90;;;;;;5059346;28;20199;-79
2023/01/28 02:21:28;;;;;;;6.33;2.63;;;1.30;99.90;;;;;;5043641;28;20199;-78
2023/01/28 02:24:18;;;;;;;8.43;3.30;;;1.30;99.90;;;;;;5050281;28;20604;-79
2023/01/28 02:27:14;;;;;;;5.00;2.63;;;1.40;99.90;;;;;;5039889;28;20183;-79
2023/01/28 02:30:05;;;;;;;5.60;2.20;;;1.40;99.90;;;;;;5065328;28;20211;-79
2023/01/28 02:32:47;;;;;;;6.57;2.73;;;1.40;99.90;;;;;;5058477;28;20219;-79
2023/01/28 02:35:38;;;;;;;6.30;2.60;;;1.40;99.90;;;;;;5057528;28;20620;-79
2023/01/28 02:38:21;;;;;;;5.30;2.50;;;1.40;99.90;;;;;;5060754;28;20208;-79
2023/01/28 02:41:02;;;;;;;8.07;2.70;;;1.40;99.90;;;;;;5039117;28;20218;-79
2023/01/28 02:43:40;;;;;;;4.00;2.67;;;1.40;99.90;;;;;;5041570;28;20215;-79
2023/01/28 02:49:00;;;;;;;6.50;2.60;;;1.50;99.90;;;;;;5059476;28;20226;-79
2023/01/28 02:51:33;;;;;;;7.17;2.37;;;1.50;99.90;;;;;;5044293;28;20202;-79
2023/01/28 02:54:26;;;;;;;10.13;2.57;;;1.60;99.90;;;;;;5063329;28;20181;-79
2023/01/28 02:57:10;;;;;;;8.53;2.53;;;1.60;99.90;;;;;;5042800;28;20181;-78
2023/01/28 02:59:48;;;;;;;5.50;2.20;;;1.60;99.90;;;;;;5064582;28;20190;-78
2023/01/28 03:02:49;;;;;;;7.40;2.57;;;1.60;99.90;;;;;;5068566;28;20276;-79
2023/01/28 03:05:30;;;;;;;8.10;2.50;;;1.50;99.90;;;;;;5059758;28;20270;-79
2023/01/28 03:07:56;;;;;;;6.57;2.80;;;1.50;99.90;;;;;;5049877;28;20210;-79
2023/01/28 03:10:25;;;;;;;7.70;2.40;;;1.60;99.90;;;;;;5068507;28;20215;-79
2023/01/28 03:38:32;;;;;;;5.97;2.03;;;1.50;99.90;;;;;;5062894;28;20218;-79
2023/01/28 03:41:04;;;;;;;5.77;2.70;;;1.50;99.90;;;;;;5060684;28;20215;-79
2023/01/28 03:43:30;;;;;;;4.30;2.07;;;1.50;99.90;;;;;;5062283;28;20257;-79
2023/01/28 03:45:56;;;;;;;5.23;2.20;;;1.50;99.90;;;;;;5047342;28;20211;-79
2023/01/28 03:48:24;;;;;;;4.23;2.13;;;1.50;99.90;;;;;;5056109;28;20284;-77
2023/01/28 03:50:53;;;;;;;4.50;2.17;;;1.40;99.90;;;;;;5048851;28;20568;-79
2023/01/28 03:53:19;;;;;;;6.10;2.30;;;1.40;99.90;;;;;;5044499;28;20699;-80
2023/01/28 03:55:48;;;;;;;5.10;2.40;;;1.50;99.90;;;;;;5043864;28;20253;-80
2023/01/28 03:58:14;;;;;;;3.80;2.23;;;1.40;99.90;;;;;;5058733;28;20390;-80
2023/01/28 04:00:42;;;;;;;4.97;2.40;;;1.50;99.90;;;;;;5037597;28;20242;-80
2023/01/28 04:03:15;;;;;;;5.40;2.63;;;1.50;99.90;;;;;;5059256;28;20226;-80
2023/01/28 04:06:00;;;;;;;3.37;1.90;;;1.50;99.90;;;;;;5061586;28;20252;-78
2023/01/28 04:08:26;;;;;;;4.03;1.70;;;1.40;99.90;;;;;;5059751;28;20595;-81
2023/01/28 04:10:52;;;;;;;4.43;2.13;;;1.40;99.90;;;;;;5061507;28;20222;-79
2023/01/28 04:13:17;;;;;;;4.03;2.00;;;1.50;99.90;;;;;;5058674;28;20206;-79
2023/01/28 04:15:44;;;;;;;4.97;1.83;;;1.50;99.90;;;;;;5046148;28;20706;-79
2023/01/28 04:18:10;;;;;;;3.70;2.20;;;1.50;99.90;;;;;;5038729;28;20212;-78
2023/01/28 04:20:36;;;;;;;2.93;1.70;;;1.60;99.90;;;;;;5058805;28;20241;-79
2023/01/28 04:23:03;;;;;;;4.00;2.00;;;1.50;99.90;;;;;;5043606;28;20276;-79
2023/01/28 04:25:29;;;;;;;5.87;2.10;;;1.60;99.90;;;;;;5056346;28;20316;-79
2023/01/28 04:27:54;;;;;;;5.27;1.73;;;1.60;99.90;;;;;;5061160;28;20268;-79
2023/01/28 04:30:20;;;;;;;7.67;2.30;;;1.50;99.90;;;;;;5034617;28;20220;-78
2023/01/28 04:32:46;;;;;;;2.10;1.80;;;1.60;99.90;;;;;;5058370;28;20605;-78
2023/01/28 04:35:12;;;;;;;5.93;2.30;;;1.70;99.90;;;;;;5063964;28;20183;-78
2023/01/28 04:37:40;;;;;;;6.83;2.23;;;1.60;99.90;;;;;;5039501;28;20216;-79
2023/01/28 04:40:06;;;;;;;4.63;1.90;;;1.70;99.90;;;;;;5043525;28;20299;-79
2023/01/28 04:42:32;;;;;;;3.83;2.20;;;1.70;99.90;;;;;;5057225;28;20223;-79
2023/01/28 04:44:57;;;;;;;3.70;1.57;;;1.80;99.90;;;;;;5059853;28;20183;-77
2023/01/28 04:47:23;;;;;;;2.77;1.67;;;1.80;99.90;;;;;;5041662;28;20178;-78
2023/01/28 04:49:49;;;;;;;4.93;1.90;;;1.80;99.90;;;;;;5057431;28;20200;-78
2023/01/28 04:52:14;;;;;;;5.90;3.03;;;1.90;99.90;;;;;;5068077;28;20207;-78
2023/01/28 04:54:40;;;;;;;2.93;1.60;;;1.80;99.90;;;;;;5063064;28;20242;-79
2023/01/28 04:57:06;;;;;;;3.77;1.90;;;1.80;99.90;;;;;;5044794;28;20615;-79
2023/01/28 04:59:31;;;;;;;4.00;2.30;;;1.90;99.90;;;;;;5059875;28;20225;-78
2023/01/28 05:01:57;;;;;;;4.15;2.30;;;1.80;99.90;;;;;;5049210;28;20419;-76
2023/01/28 05:04:23;;;;;;;3.57;2.67;;;1.90;99.90;;;;;;5064188;28;20214;-79
2023/01/28 05:06:49;;;;;;;1.97;1.77;;;1.90;99.90;;;;;;5059600;28;20206;-80
2023/01/28 05:09:14;;;;;;;2.77;2.10;;;1.90;99.90;;;;;;5065118;28;20213;-78
2023/01/28 05:11:40;;;;;;;4.53;2.00;;;1.90;99.90;;;;;;5043119;28;20225;-78
2023/01/28 05:14:11;;;;;;;4.93;2.43;;;1.90;99.90;;;;;;5061888;28;20196;-77
2023/01/28 05:16:37;;;;;;;3.67;1.90;;;1.90;99.90;;;;;;5041991;28;20206;-79
2023/01/28 05:19:03;;;;;;;4.70;1.87;;;1.90;99.90;;;;;;5066401;28;20290;-78
2023/01/28 05:21:29;;;;;;;4.53;2.20;;;1.90;99.90;;;;;;5060549;28;20208;-80
2023/01/28 05:23:54;;;;;;;6.70;2.87;;;1.90;99.90;;;;;;5063571;28;20257;-78
2023/01/28 05:26:20;;;;;;;4.93;2.00;;;1.80;99.90;;;;;;5048418;28;20167;-79
2023/01/28 05:28:45;;;;;;;3.07;1.93;;;1.80;99.90;;;;;;5061600;28;20208;-78
2023/01/28 05:31:11;;;;;;;4.20;2.53;;;1.80;99.90;;;;;;5049097;28;20857;-78
2023/01/28 05:33:37;;;;;;;6.67;2.50;;;1.70;99.90;;;;;;5044164;28;20217;-78
2023/01/28 05:36:03;;;;;;;6.93;3.70;;;1.80;99.90;;;;;;5064106;28;20172;-79
2023/01/28 05:38:29;;;;;;;5.57;3.10;;;1.80;99.90;;;;;;5044111;28;20677;-78
2023/01/28 05:40:54;;;;;;;10.23;3.57;;;1.90;99.90;;;;;;5043409;28;20586;-79
2023/01/28 05:43:20;;;;;;;5.67;3.30;;;1.90;99.90;;;;;;5047578;28;20222;-78
2023/01/28 05:45:46;;;;;;;6.63;3.90;;;1.90;99.90;;;;;;5060811;28;20633;-77
2023/01/28 05:48:12;;;;;;;6.77;3.60;;;1.90;99.90;;;;;;5061897;28;20696;-78
2023/01/28 05:50:38;;;;;;;8.67;4.20;;;2.00;99.90;;;;;;5065132;28;20191;-79
2023/01/28 05:53:06;;;;;;;8.77;3.97;;;2.00;99.90;;;;;;5061396;28;20208;-79
2023/01/28 05:55:32;;;;;;;9.20;4.87;;;2.00;99.90;;;;;;5061477;28;20656;-78
2023/01/28 05:57:58;;;;;;;9.80;5.13;;;2.00;99.90;;;;;;5042887;28;20229;-77
2023/01/28 06:00:24;;;;;;;9.13;6.03;;;2.00;99.90;;;;;;5058180;28;20216;-79
2023/01/28 06:02:52;;;;;;;15.20;7.87;;;2.00;99.90;;;;;;5044575;28;20237;-78
2023/01/28 06:05:18;;;;;;;14.17;7.20;;;2.00;99.90;;;;;;5061660;28;20256;-78
2023/01/28 06:07:46;;;;;;;9.97;6.87;;;2.00;99.90;;;;;;5059757;28;20211;-79
2023/01/28 06:10:13;;;;;;;15.67;7.17;;;2.00;99.90;;;;;;5048080;28;20208;-77
2023/01/28 06:12:39;;;;;;;14.33;7.27;;;2.00;99.90;;;;;;5039864;28;20645;-79
2023/01/28 06:15:05;;;;;;;11.63;6.47;;;2.00;99.90;;;;;;5063061;28;20211;-80
2023/01/28 06:17:30;;;;;;;9.33;5.40;;;2.00;99.90;;;;;;5055414;28;20227;-79
2023/01/28 06:19:56;;;;;;;11.40;6.07;;;2.00;99.90;;;;;;5042203;28;20589;-78
2023/01/28 06:22:22;;;;;;;10.47;6.37;;;2.00;99.90;;;;;;5061715;28;20213;-79
2023/01/28 06:24:48;;;;;;;11.37;5.80;;;2.00;99.90;;;;;;5043578;28;20206;-79
2023/01/28 06:27:13;;;;;;;12.60;5.57;;;2.00;99.90;;;;;;5047945;28;20207;-79
2023/01/28 06:29:39;;;;;;;9.03;5.60;;;1.90;99.90;;;;;;5045044;28;20185;-81
2023/01/28 06:32:05;;;;;;;10.30;5.30;;;1.90;99.90;;;;;;5041446;28;20207;-79
2023/01/28 06:34:30;;;;;;;6.87;4.87;;;1.90;99.90;;;;;;5063053;28;21026;-78
2023/01/28 06:36:56;;;;;;;9.70;5.10;;;1.90;99.90;;;;;;5061362;28;20629;-80
2023/01/28 06:39:22;;;;;;;8.30;4.93;;;1.90;99.90;;;;;;5045137;28;20220;-80
2023/01/28 06:41:49;;;;;;;8.80;5.23;;;1.90;99.90;;;;;;5063594;28;20258;-80
2023/01/28 06:44:15;;;;;;;11.23;5.23;;;2.00;99.90;;;;;;5061264;28;20217;-78
2023/01/28 06:46:40;;;;;;;9.33;4.53;;;2.00;99.90;;;;;;5026027;28;20212;-77
2023/01/28 06:49:06;;;;;;;5.80;3.70;;;2.00;99.90;;;;;;5044582;28;20203;-79
2023/01/28 06:51:32;;;;;;;8.43;4.00;;;2.00;99.90;;;;;;5045027;28;20222;-81
2023/01/28 06:53:57;;;;;;;8.53;4.43;;;1.90;99.90;;;;;;5059159;28;20199;-78
2023/01/28 06:56:23;;;;;;;6.93;3.93;;;2.00;99.90;;;;;;5047983;28;20538;-79
2023/01/28 06:58:49;;;;;;;7.63;4.17;;;1.90;99.90;;;;;;5061556;28;20223;-80
2023/01/28 07:01:14;;;;;;;4.83;3.30;;;2.00;99.90;;;;;;5039739;28;20215;-78
2023/01/28 07:03:40;;;;;;;3.37;2.30;;;2.00;99.90;;;;;;5043363;28;20223;-79
2023/01/28 07:06:06;;;;;;;4.60;1.90;;;2.00;99.90;;;;;;5046753;28;20225;-78
2023/01/28 07:08:32;;;;;;;4.73;2.43;;;2.10;99.90;;;;;;5060674;28;20192;-79
2023/01/28 07:10:58;;;;;;;4.20;2.23;;;2.00;99.90;;;;;;5048496;28;20305;-77
2023/01/28 07:13:23;;;;;;;5.00;2.37;;;2.10;99.90;;;;;;5067703;28;20635;-80
2023/01/28 07:15:49;;;;;;;4.13;2.33;;;2.10;99.90;;;;;;5050001;28;20212;-76
2023/01/28 07:18:15;;;;;;;3.77;2.10;;;2.10;99.90;;;;;;5065518;28;20199;-78
2023/01/28 07:20:41;;;;;;;4.03;2.40;;;2.10;99.90;;;;;;5046655;28;20305;-77
2023/01/28 07:23:07;;;;;;;3.33;2.20;;;2.20;99.90;;;;;;5044168;28;20268;-79
2023/01/28 07:25:32;;;;;;;3.77;2.20;;;2.20;99.90;;;;;;5047650;28;20209;-77
2023/01/28 07:27:58;;;;;;;3.77;2.10;;;2.10;99.90;;;;;;5041259;28;20230;-77
2023/01/28 07:30:24;;;;;;;3.67;1.90;;;2.20;99.90;;;;;;5064301;28;20623;-79
2023/01/28 07:32:54;;;;;;;4.57;2.13;;;2.20;99.90;;;;;;5039082;28;20555;-79
2023/01/28 07:35:20;;;;;;;3.83;1.90;;;2.20;99.90;;;;;;5056224;28;20182;-79
2023/01/28 07:37:54;;;;;;;5.37;2.23;;;2.20;99.90;;;;;;5043278;28;20250;-79
2023/01/28 07:40:20;;;;;;;3.63;1.77;;;2.20;99.90;;;;;;5062537;28;20214;-80
2023/01/28 07:42:46;;;;;;;3.93;1.77;;;2.20;99.90;;;;;;5046841;28;20251;-79
2023/01/28 07:45:12;;;;;;;5.50;2.13;;;2.30;99.90;;;;;;5045131;28;20276;-79
2023/01/28 07:47:37;;;;;;;4.23;1.87;;;2.30;99.90;;;;;;5062750;28;20181;-80
2023/01/28 07:50:03;;;;;;;3.30;1.60;;;2.40;99.90;;;;;;5066613;28;20217;-80
2023/01/28 07:52:29;;;;;;;3.70;1.27;;;2.40;99.90;;;;;;5060792;28;20256;-79
2023/01/28 07:54:54;;;;;;;2.70;1.57;;;2.30;99.90;;;;;;5046668;28;20624;-79
2023/01/28 07:57:22;;;;;;;4.97;1.40;;;2.40;99.90;;;;;;5063534;28;20430;-78
2023/01/28 07:59:50;;;;;;;3.30;1.40;;;2.40;99.90;;;;;;5063219;28;20206;-80
2023/01/28 08:02:17;;;;;;;4.00;1.87;;;2.50;99.90;;;;;;5048851;28;20523;-80
2023/01/28 08:04:42;;;;;;;4.70;1.53;;;2.50;99.90;;;;;;5058982;28;20255;-79
2023/01/28 08:07:08;;;;;;;3.37;1.77;;;2.50;99.90;;;;;;5061829;28;20239;-79
2023/01/28 08:09:34;;;;;;;2.60;1.30;;;2.50;99.90;;;;;;5038310;28;20591;-78
2023/01/28 08:12:03;;;;;;;2.63;1.57;;;2.60;99.90;;;;;;5065589;28;20242;-79
2023/01/28 08:14:29;;;;;;;3.00;1.50;;;2.60;99.90;;;;;;5068166;28;20699;-79
2023/01/28 08:16:54;;;;;;;3.10;1.67;;;2.60;99.90;;;;;;5063291;28;20207;-79
2023/01/28 08:19:20;;;;;;;3.80;1.80;;;2.60;99.90;;;;;;5062219;28;20280;-79
2023/01/28 08:21:49;;;;;;;4.57;1.47;;;2.60;99.90;;;;;;5065257;28;20242;-79
2023/01/28 08:24:16;;;;;;;5.63;1.33;;;2.60;99.90;;;;;;5047778;28;20242;-79
2023/01/28 08:26:42;;;;;;;3.30;1.23;;;2.60;99.90;;;;;;5045784;28;20265;-78
2023/01/28 08:29:07;;;;;;;5.93;1.40;;;2.60;99.90;;;;;;5059829;28;20571;-78
2023/01/28 08:31:33;;;;;;;2.20;1.10;;;2.60;99.90;;;;;;5060724;28;20220;-78
2023/01/28 08:33:59;;;;;;;4.07;1.30;;;2.60;99.90;;;;;;5041152;28;20298;-79
2023/01/28 08:36:25;;;;;;;2.87;1.10;;;2.60;99.90;;;;;;5063007;28;20219;-79
2023/01/28 08:38:53;;;;;;;4.87;1.63;;;2.60;99.90;;;;;;5045312;28;20206;-78
2023/01/28 08:41:20;;;;;;;5.80;1.20;;;2.60;99.90;;;;;;5046441;28;20196;-80
2023/01/28 08:43:47;;;;;;;2.47;1.20;;;2.70;99.90;;;;;;5064892;28;20370;-79
2023/01/28 08:46:12;;;;;;;3.00;1.57;;;2.70;99.90;;;;;;5047484;28;20244;-77
2023/01/28 08:48:38;;;;;;;4.57;1.20;;;2.70;99.90;;;;;;5043040;28;20283;-79
2023/01/28 08:51:04;;;;;;;2.43;1.07;;;2.80;99.90;;;;;;5040875;28;20231;-79
2023/01/28 08:53:30;;;;;;;1.43;0.90;;;2.80;99.90;;;;;;5041930;28;20649;-79
2023/01/28 08:55:55;;;;;;;1.70;1.20;;;2.80;99.90;;;;;;5058764;28;20290;-79
2023/01/28 08:58:21;;;;;;;2.60;0.93;;;2.70;99.90;;;;;;5044167;28;20218;-79
2023/01/28 09:00:47;;;;;;;1.77;0.90;;;2.70;99.90;;;;;;5037620;28;20221;-80
2023/01/28 09:03:13;;;;;;;2.73;1.13;;;2.70;99.90;;;;;;5061235;28;20219;-79
2023/01/28 09:05:39;;;;;;;2.37;0.90;;;2.80;99.90;;;;;;5040486;28;20190;-79
2023/01/28 09:08:10;;;;;;;2.73;0.97;;;2.60;99.90;;;;;;5041791;28;20227;-79
2023/01/28 09:10:37;;;;;;;4.13;1.30;;;2.70;99.90;;;;;;5040411;28;20217;-79
2023/01/28 09:13:12;;;;;;;1.40;0.80;;;2.60;99.90;;;;;;5046336;28;20199;-78
2023/01/28 09:15:38;;;;;;;2.43;1.00;;;2.50;99.90;;;;;;5045807;28;20198;-78
2023/01/28 09:18:04;;;;;;;2.00;1.47;;;2.40;99.90;;;;;;5068130;28;20191;-79
2023/01/28 09:20:31;;;;;;;1.47;0.70;;;2.40;99.90;;;;;;5045568;28;20197;-79
2023/01/28 09:22:58;;;;;;;3.97;0.90;;;2.50;99.90;;;;;;5038531;28;20219;-77
2023/01/28 09:25:24;;;;;;;3.13;1.10;;;2.50;99.90;;;;;;5059529;28;20214;-79
2023/01/28 09:27:49;;;;;;;2.83;1.27;;;2.60;99.90;;;;;;5038777;28;20208;-78
2023/01/28 09:30:15;;;;;;;7.00;1.23;;;2.70;99.90;;;;;;5041555;28;20212;-79
2023/01/28 09:32:41;;;;;;;1.37;0.97;;;2.80;99.90;;;;;;5044538;28;20609;-78
2023/01/28 09:35:07;;;;;;;2.43;1.33;;;2.90;99.90;;;;;;5043530;28;20218;-79
2023/01/28 09:37:33;;;;;;;4.00;1.00;;;2.80;99.90;;;;;;5041580;28;20219;-79
2023/01/28 09:39:58;;;;;;;2.03;1.00;;;3.00;99.90;;;;;;5028491;28;20748;-77
2023/01/28 09:42:27;;;;;;;3.60;1.00;;;3.00;99.90;;;;;;5066111;28;20244;-79
2023/01/28 09:45:15;;;;;;;2.43;1.23;;;3.00;99.90;;;;;;5062340;28;20228;-78
2023/01/28 09:47:43;;;;;;;3.80;1.13;;;3.10;99.90;;;;;;5043683;28;20194;-79
2023/01/28 09:50:25;;;;;;;2.70;0.90;;;3.20;99.90;;;;;;5062989;28;20214;-80
2023/01/28 09:52:54;;;;;;;3.60;1.03;;;3.10;99.90;;;;;;5067420;28;20300;-80
2023/01/28 09:55:37;;;;;;;2.53;0.83;;;3.10;99.90;;;;;;5058168;28;20230;-79
2023/01/28 09:58:07;;;;;;;2.80;1.17;;;3.20;99.90;;;;;;5048201;28;20543;-79
2023/01/28 10:00:42;;;;;;;2.33;1.30;;;3.20;99.90;;;;;;5050783;28;20215;-78
2023/01/28 10:03:53;;;;;;;1.50;1.00;;;3.20;99.90;;;;;;5041251;28;20325;-77
2023/01/28 10:06:35;;;;;;;2.40;0.87;;;3.20;99.90;;;;;;5037620;28;20769;-79
2023/01/28 10:09:22;;;;;;;2.33;0.87;;;3.10;99.90;;;;;;5024869;28;20203;-78
2023/01/28 10:12:07;;;;;;;3.20;0.90;;;3.20;99.90;;;;;;5037190;28;20268;-79
2023/01/28 10:14:55;;;;;;;1.57;0.97;;;3.10;99.90;;;;;;5042251;28;20186;-78
2023/01/28 10:17:59;;;;;;;3.33;1.17;;;3.20;99.90;;;;;;5063617;28;20206;-78
2023/01/28 10:20:32;;;;;;;2.23;0.80;;;3.20;99.90;;;;;;4978959;28;20215;-79
2023/01/28 10:23:04;;;;;;;1.90;0.80;;;3.30;99.90;;;;;;5057530;28;20226;-77
2023/01/28 10:25:31;;;;;;;2.37;0.80;;;3.30;99.90;;;;;;5078188;28;20207;-80
2023/01/28 10:27:59;;;;;;;3.43;0.90;;;3.20;99.90;;;;;;5056904;28;20224;-77
2023/01/28 10:30:29;;;;;;;2.30;1.13;;;3.20;99.90;;;;;;5059012;28;20219;-78
2023/01/28 10:33:15;;;;;;;1.43;0.90;;;3.30;99.90;;;;;;5057941;28;20189;-77
2023/01/28 10:35:42;;;;;;;3.23;1.17;;;3.40;99.90;;;;;;5071864;28;20215;-79
2023/01/28 10:38:13;;;;;;;0.77;0.70;;;3.40;99.90;;;;;;5077069;28;20214;-79
2023/01/28 10:40:41;;;;;;;1.33;0.90;;;3.50;99.90;;;;;;5075686;28;20217;-80
2023/01/28 10:43:07;;;;;;;4.37;1.00;;;3.50;99.90;;;;;;5076491;28;20203;-77
2023/01/28 10:45:48;;;;;;;2.90;0.90;;;3.50;99.90;;;;;;5067131;28;20213;-80
2023/01/28 10:48:23;;;;;;;3.77;1.10;;;3.50;99.90;;;;;;5033397;28;20199;-78
2023/01/28 10:50:50;;;;;;;1.93;0.80;;;3.60;99.90;;;;;;5064674;28;20194;-80
2023/01/28 10:53:16;;;;;;;3.47;1.00;;;3.50;99.90;;;;;;5065630;28;20221;-79
2023/01/28 10:55:47;;;;;;;2.57;0.70;;;3.40;99.90;;;;;;5066400;28;20701;-79
2023/01/28 10:58:19;;;;;;;1.43;0.70;;;3.50;99.90;;;;;;5064229;28;20229;-79
2023/01/28 11:00:51;;;;;;;2.90;0.87;;;3.50;99.90;;;;;;5072289;28;20279;-78
2023/01/28 11:03:20;;;;;;;3.43;1.20;;;3.50;99.90;;;;;;5057392;28;20223;-78
2023/01/28 11:05:54;;;;;;;4.17;1.00;;;3.50;99.90;;;;;;5077974;28;20239;-78
2023/01/28 11:08:21;;;;;;;3.77;1.50;;;3.50;99.90;;;;;;5057275;28;20530;-78
2023/01/28 11:10:47;;;;;;;1.90;1.37;;;3.50;99.90;;;;;;5050345;28;20222;-77
2023/01/28 11:13:20;;;;;;;3.90;2.20;;;3.50;99.90;;;;;;5062900;28;20252;-78
2023/01/28 11:15:52;;;;;;;6.07;2.97;;;3.40;99.90;;;;;;5062277;23;20247;-73
2023/01/28 11:18:24;;;;;;;4.17;1.30;;;3.40;99.90;;;;;;5066490;28;20221;-74
2023/01/28 11:21:02;;;;;;;1.73;0.87;;;3.40;99.90;;;;;;5067096;28;20175;-75
2023/01/28 11:24:02;;;;;;;6.17;2.40;;;3.50;99.90;;;;;;5051186;28;20704;-75
2023/01/28 11:26:33;;;;;;;3.73;1.17;;;3.40;99.90;;;;;;5064848;28;20350;-75
2023/01/28 11:28:58;;;;;;;5.50;1.17;;;3.50;99.90;;;;;;5059158;28;20237;-74
2023/01/28 11:31:25;;;;;;;4.23;1.27;;;3.50;99.90;;;;;;5040048;28;20697;-73
2023/01/28 11:33:57;;;;;;;3.17;1.50;;;3.60;99.90;;;;;;5059357;28;20204;-74
2023/01/28 11:36:33;;;;;;;2.03;1.10;;;3.70;99.90;;;;;;5057161;28;20215;-74
2023/01/28 11:39:04;;;;;;;2.20;1.00;;;3.70;99.90;;;;;;5041433;28;20171;-74
2023/01/28 11:41:29;;;;;;;2.23;1.27;;;3.70;99.90;;;;;;5061498;28;20178;-74
2023/01/28 11:43:57;;;;;;;3.40;1.27;;;3.60;99.90;;;;;;5040940;28;20718;-74
2023/01/28 11:46:26;;;;;;;3.40;1.03;;;3.50;99.90;;;;;;5061619;28;20206;-74
2023/01/28 11:48:57;;;;;;;2.77;0.77;;;3.60;99.90;;;;;;5054983;28;20285;-74
2023/01/28 11:51:44;;;;;;;1.73;0.60;;;3.60;99.90;;;;;;5062450;28;20650;-74
2023/01/28 11:54:22;;;;;;;2.83;0.90;;;3.80;99.90;;;;;;5057843;28;20568;-74
2023/01/28 11:56:56;;;;;;;2.23;1.10;;;3.90;99.90;;;;;;5038090;28;20210;-72
2023/01/28 11:59:24;;;;;;;2.33;1.40;;;4.00;99.90;;;;;;5062183;28;20190;-73
2023/01/28 12:02:08;;;;;;;3.50;1.07;;;4.10;99.90;;;;;;5057888;28;20206;-71
2023/01/28 12:05:00;;;;;;;3.87;1.10;;;4.10;99.90;;;;;;5037418;28;20215;-73
2023/01/28 12:07:49;;;;;;;1.33;0.77;;;4.00;99.90;;;;;;5039026;28;20203;-74
2023/01/28 12:10:39;;;;;;;3.00;1.00;;;3.90;99.90;;;;;;5030024;28;20207;-74
2023/01/28 12:13:14;;;;;;;2.97;1.27;;;3.80;99.90;;;;;;5038770;28;20218;-74
2023/01/28 12:15:58;;;;;;;3.80;1.67;;;3.70;99.90;;;;;;5061050;28;20213;-72
2023/01/28 12:18:43;;;;;;;2.20;1.23;;;3.60;99.90;;;;;;5061170;28;20218;-73
2023/01/28 12:21:14;;;;;;;1.87;1.20;;;3.70;99.90;;;;;;5057935;28;20297;-71
2023/01/28 12:23:58;;;;;;;2.60;1.10;;;3.80;99.90;;;;;;5060855;28;20325;-74
2023/01/28 12:26:34;;;;;;;2.73;0.90;;;3.80;99.90;;;;;;5048061;28;20752;-74
2023/01/28 12:29:36;;;;;;;2.43;0.80;;;3.90;99.90;;;;;;5040659;28;20598;-74
2023/01/28 12:32:20;;;;;;;1.93;0.70;;;4.00;99.90;;;;;;5056139;28;20215;-74
2023/01/28 12:34:49;;;;;;;1.80;1.23;;;4.00;99.90;;;;;;5055459;28;20215;-73
2023/01/28 12:37:40;;;;;;;2.10;1.00;;;4.00;99.90;;;;;;5042133;28;20218;-74
2023/01/28 12:40:08;;;;;;;3.23;1.20;;;4.00;99.90;;;;;;5056637;28;20597;-73
2023/01/28 12:43:01;;;;;;;2.40;0.90;;;3.90;99.90;;;;;;5058367;28;20210;-74
2023/01/28 12:45:39;;;;;;;1.00;0.70;;;3.90;99.90;;;;;;5064957;28;20293;-74
2023/01/28 12:48:13;;;;;;;2.57;0.90;;;3.80;99.90;;;;;;5060461;28;20175;-74
2023/01/28 12:50:46;;;;;;;3.87;1.30;;;3.70;99.90;;;;;;5041375;28;20242;-74
2023/01/28 12:53:22;;;;;;;2.10;1.10;;;3.80;99.90;;;;;;5041343;28;20231;-74
2023/01/28 12:56:06;;;;;;;2.80;1.23;;;3.80;99.90;;;;;;5060200;28;20272;-73
2023/01/28 12:58:41;;;;;;;1.60;0.87;;;3.80;99.90;;;;;;5063801;28;20218;-72
2023/01/28 13:01:12;;;;;;;3.17;1.20;;;3.70;99.90;;;;;;5026304;28;20211;-74
2023/01/28 13:04:05;;;;;;;1.77;0.87;;;3.80;99.90;;;;;;5061975;28;20665;-74
2023/01/28 13:06:49;;;;;;;1.07;0.80;;;3.70;99.90;;;;;;5062953;28;20222;-74
2023/01/28 13:09:18;;;;;;;3.17;1.10;;;3.80;99.90;;;;;;5060956;28;20210;-74
2023/01/28 13:11:45;;;;;;;2.10;1.27;;;3.80;99.90;;;;;;5066594;28;20185;-74
2023/01/28 13:14:12;;;;;;;1.90;1.50;;;3.80;99.90;;;;;;5062303;28;20670;-73
2023/01/28 13:16:37;;;;;;;2.60;1.37;;;3.80;99.90;;;;;;5041584;28;20238;-74
2023/01/28 13:19:16;;;;;;;2.97;1.20;;;3.80;99.90;;;;;;5063176;28;20207;-74
2023/01/28 13:21:42;;;;;;;1.80;0.90;;;3.80;99.90;;;;;;5048541;28;20221;-74
2023/01/28 13:24:07;;;;;;;0.93;0.70;;;3.70;99.90;;;;;;5073201;28;20222;-74
2023/01/28 13:26:49;;;;;;;1.33;0.63;;;3.70;99.90;;;;;;5069740;28;20301;-74
2023/01/28 13:29:28;;;;;;;2.27;0.87;;;3.60;99.90;;;;;;5073924;28;20226;-75
2023/01/28 13:31:56;;;;;;;1.87;0.60;;;3.60;99.90;;;;;;5054164;28;20705;-74
2023/01/28 13:34:35;;;;;;;2.10;0.90;;;3.60;99.90;;;;;;5068336;28;21037;-72
2023/01/28 13:37:30;;;;;;;2.07;0.70;;;3.60;99.90;;;;;;5067693;28;20269;-74
2023/01/28 13:40:11;;;;;;;4.40;0.90;;;3.60;99.90;;;;;;5035107;28;20216;-72
2023/01/28 13:42:37;;;;;;;1.33;0.70;;;3.70;99.90;;;;;;5037227;28;20208;-74